Strona główna
METAR-TAF:

METAR-TAF

Lotnisko :

Olean, Nowy Jork, Stany Zjednoczone

Szerokość geograficzna: 42-14-28N, Długość geograficzna: 078-22-17W, wysokość: 651 m

Aktualna obserwacja pogody

Raport powstał 18 minut temu, godzina 01:35 UTC
Wiatr 8 kt od południowy zachód, zmienny między południowo-południowy zachód i zachód
Temperatura 3°C
Wilgotność 38%
Ciśnienie 1015 hPa
Widzialność: 16.1 km
Przerywane chmury na wysokości 4300 ft
Zachmurzenie całkowite na wysokości 5500 ft

METAR: KOLE 240135Z AUTO 22008KT 200V260 10SM BKN043 OVC055 03/M10 A2996 RMK AO2

czas: 20:53 (01:53 UTC)


TAF: brakujący

Obserwacja i prognoza pogody dla ponad 4000 lotnisk (raport METAR i TAF).

Dostępne stacje oznaczono żółtymi i czerwonymi punktami na mapie.

Najedź kursorem aby zobaczyć nazwę stacji.

Kliknij aby zobaczyć obserwacje i prognozy pogody.

Aby zmienić mapę: kliknij na zielony przycisk z czarnym krzyżykiem, aby powiększyć; na zielony przycisk z myślnikiem, aby pomniejszyć; na zielone strzałki, aby przejść do map sąsiednich.


METAR-TAF: